Time;durP1;ratioP1;P1;durP2;ratioP2;P2;SDS_P1;SDS_P2;PMS_P1;PMS_P2;Temp;Humidity;BMP_temperature;BMP_pressure;BME280_temperature;BME280_humidity;BME280_pressure;Samples;Min_cycle;Max_cycle;Signal;HPM_P1;HPM_P2
2023/10/01 00:01:55;;;;;;;15.90;9.80;;;;;;;7.52;100.00;99733.61;137250;1275;22595;-80
2023/10/01 00:04:57;;;;;;;21.60;9.70;;;;;;;7.51;100.00;99733.56;136699;1275;22229;-80
2023/10/01 00:07:58;;;;;;;20.60;10.10;;;;;;;7.53;100.00;99731.73;136765;1275;22896;-80
2023/10/01 00:11:00;;;;;;;22.00;10.90;;;;;;;7.54;100.00;99736.80;136957;1275;25407;-81
2023/10/01 00:14:03;;;;;;;20.60;10.30;;;;;;;7.56;100.00;99729.23;137004;1274;22205;-81
2023/10/01 00:17:06;;;;;;;18.70;10.50;;;;;;;7.56;100.00;99727.34;136796;1269;22200;-80
2023/10/01 00:20:13;;;;;;;20.60;10.40;;;;;;;7.57;100.00;99722.52;136769;1274;22545;-80
2023/10/01 00:23:14;;;;;;;17.50;9.60;;;;;;;7.59;100.00;99719.85;137292;1274;22538;-78
2023/10/01 00:26:15;;;;;;;19.00;10.70;;;;;;;7.65;100.00;99720.05;136655;1274;22200;-80
2023/10/01 00:29:16;;;;;;;18.30;10.20;;;;;;;7.68;100.00;99723.11;136722;1274;22166;-80
2023/10/01 00:32:17;;;;;;;19.10;9.60;;;;;;;7.66;100.00;99720.45;137221;1274;22544;-80
2023/10/01 00:35:18;;;;;;;16.90;9.90;;;;;;;7.61;100.00;99718.72;136801;1274;22447;-80
2023/10/01 00:38:19;;;;;;;17.30;9.10;;;;;;;7.58;100.00;99718.41;136757;1274;22174;-80
2023/10/01 00:41:20;;;;;;;19.70;10.70;;;;;;;7.57;100.00;99713.38;137016;1274;22539;-81
2023/10/01 00:44:21;;;;;;;11.40;8.70;;;;;;;7.55;100.00;99714.32;136959;1274;22295;-81
2023/10/01 00:47:23;;;;;;;17.50;9.50;;;;;;;7.51;100.00;99707.75;136671;1274;22545;-79
2023/10/01 00:50:24;;;;;;;17.30;10.10;;;;;;;7.47;100.00;99709.85;136781;1274;22541;-80
2023/10/01 00:53:25;;;;;;;17.70;9.80;;;;;;;7.45;100.00;99709.08;137064;1274;22286;-80
2023/10/01 00:56:26;;;;;;;24.40;10.70;;;;;;;7.40;100.00;99708.39;136689;1275;22598;-80
2023/10/01 00:59:27;;;;;;;17.70;10.20;;;;;;;7.36;100.00;99703.02;136634;1275;24223;-79
2023/10/01 01:02:30;;;;;;;18.10;10.60;;;;;;;7.33;100.00;99702.41;137300;1274;22485;-80
2023/10/01 01:05:34;;;;;;;19.10;10.70;;;;;;;7.31;100.00;99697.47;136721;1275;22269;-80
2023/10/01 01:08:46;;;;;;;14.30;9.40;;;;;;;7.28;100.00;99692.69;136656;1275;22317;-80
2023/10/01 01:11:47;;;;;;;19.20;10.70;;;;;;;7.26;100.00;99690.69;136979;1275;22548;-80
2023/10/01 01:14:49;;;;;;;20.30;10.80;;;;;;;7.24;100.00;99693.56;136943;1274;22354;-80
2023/10/01 01:17:51;;;;;;;19.40;9.50;;;;;;;7.22;100.00;99695.73;136717;1271;22205;-80
2023/10/01 01:20:57;;;;;;;20.30;9.70;;;;;;;7.21;100.00;99699.51;136799;1275;22540;-81
2023/10/01 01:23:59;;;;;;;15.00;9.80;;;;;;;7.18;100.00;99704.05;137322;1275;22139;-81
2023/10/01 01:27:05;;;;;;;20.70;9.80;;;;;;;7.16;100.00;99697.73;136659;1275;22164;-78
2023/10/01 01:30:08;;;;;;;16.20;10.00;;;;;;;7.14;100.00;99700.46;136570;1263;22536;-79
2023/10/01 01:33:12;;;;;;;18.30;9.90;;;;;;;7.12;100.00;99705.88;137221;1274;22257;-79
2023/10/01 01:36:14;;;;;;;;;;;;;;;7.12;100.00;99706.25;136703;1275;22508;-79
2023/10/01 01:39:26;;;;;;;18.50;9.60;;;;;;;7.10;100.00;99703.41;136782;1275;22206;-79
2023/10/01 01:42:28;;;;;;;19.50;8.30;;;;;;;7.12;100.00;99702.95;136909;1275;22539;-80
2023/10/01 01:45:33;;;;;;;11.70;8.20;;;;;;;7.13;100.00;99701.08;136986;1275;23050;-79
2023/10/01 01:48:37;;;;;;;;;;;;;;;7.09;100.00;99696.61;136681;1274;22786;-79
2023/10/01 01:51:40;;;;;;;18.60;9.10;;;;;;;7.08;100.00;99695.00;136699;1275;22521;-80
2023/10/01 01:54:41;;;;;;;16.40;8.80;;;;;;;7.12;100.00;99688.77;137326;1275;22227;-80
2023/10/01 01:57:42;;;;;;;15.20;8.80;;;;;;;7.14;100.00;99693.70;136738;1275;22172;-78
2023/10/01 02:01:01;;;;;;;20.50;9.00;;;;;;;7.16;100.00;99690.65;136676;1275;22404;-80
2023/10/01 02:04:02;;;;;;;15.00;9.10;;;;;;;7.12;100.00;99687.56;137000;1275;22608;-81
2023/10/01 02:07:03;;;;;;;15.10;9.30;;;;;;;7.09;100.00;99689.85;137112;1275;22141;-80
2023/10/01 02:10:06;;;;;;;21.20;9.20;;;;;;;7.08;100.00;99691.38;136597;1271;22592;-80
2023/10/01 02:13:08;;;;;;;16.90;9.30;;;;;;;7.10;100.00;99687.83;136762;1275;24202;-81
2023/10/01 02:19:29;;;;;;;15.90;8.30;;;;;;;7.07;100.00;99671.77;136669;1274;22210;-81
2023/10/01 02:22:33;;;;;;;19.60;8.70;;;;;;;7.07;100.00;99678.02;137023;1275;22217;-80
2023/10/01 02:25:37;;;;;;;17.30;8.50;;;;;;;7.10;100.00;99677.08;137244;1275;22547;-80
2023/10/01 02:28:38;;;;;;;12.50;8.30;;;;;;;7.14;100.00;99677.06;137295;1275;22160;-80
2023/10/01 02:31:42;;;;;;;15.40;8.70;;;;;;;7.17;100.00;99674.08;137046;1275;22480;-80
2023/10/01 02:34:43;;;;;;;19.20;8.70;;;;;;;7.25;100.00;99678.52;137223;1274;22491;-80
2023/10/01 02:37:47;;;;;;;17.20;8.80;;;;;;;7.27;100.00;99672.39;137267;1275;22702;-80
2023/10/01 02:40:49;;;;;;;17.10;8.30;;;;;;;7.31;100.00;99677.05;136959;1275;22296;-79
2023/10/01 02:43:50;;;;;;;18.50;8.60;;;;;;;7.36;100.00;99673.42;137192;1275;24418;-80
2023/10/01 02:46:51;;;;;;;23.60;9.20;;;;;;;7.40;100.00;99674.10;137344;1275;22221;-80
2023/10/01 02:49:53;;;;;;;14.10;8.30;;;;;;;7.44;100.00;99679.79;136872;1275;22257;-80
2023/10/01 02:52:55;;;;;;;15.00;7.30;;;;;;;7.50;100.00;99684.52;136707;1275;22811;-80
2023/10/01 02:56:02;;;;;;;14.70;6.80;;;;;;;7.57;100.00;99681.65;137097;1275;22547;-80
2023/10/01 02:59:08;;;;;;;14.30;7.60;;;;;;;7.59;100.00;99676.89;136920;1265;22216;-81
2023/10/01 03:02:09;;;;;;;14.80;6.20;;;;;;;7.63;100.00;99673.38;136625;1275;22392;-81
2023/10/01 03:05:18;;;;;;;17.20;6.60;;;;;;;7.64;100.00;99672.22;136470;1275;283035;-80
2023/10/01 03:08:40;;;;;;;17.40;6.10;;;;;;;7.67;100.00;99671.82;137254;1275;22140;-80
2023/10/01 03:11:44;;;;;;;10.50;6.50;;;;;;;7.74;100.00;99681.41;136784;1275;22178;-81
2023/10/01 03:15:00;;;;;;;15.50;6.30;;;;;;;7.81;100.00;99683.24;136696;1275;22182;-80
2023/10/01 03:18:08;;;;;;;12.50;6.70;;;;;;;7.84;100.00;99677.48;136800;1275;22469;-81
2023/10/01 03:21:17;;;;;;;16.40;6.10;;;;;;;7.84;100.00;99680.92;137204;1275;22234;-80
2023/10/01 03:24:20;;;;;;;10.40;5.70;;;;;;;7.81;100.00;99676.83;136635;1275;22151;-80
2023/10/01 03:27:25;;;;;;;11.90;5.70;;;;;;;7.79;100.00;99675.34;136640;1275;25280;-80
2023/10/01 03:30:32;;;;;;;11.20;6.50;;;;;;;7.81;100.00;99660.40;137267;1275;22543;-81
2023/10/01 03:33:33;;;;;;;9.00;5.70;;;;;;;7.81;100.00;99647.70;136746;1275;22296;-80
2023/10/01 03:36:42;;;;;;;11.90;5.90;;;;;;;7.85;100.00;99653.79;136680;1275;22484;-80
2023/10/01 03:39:43;;;;;;;7.70;5.40;;;;;;;7.93;100.00;99656.84;136828;1275;22541;-81
2023/10/01 03:42:50;;;;;;;7.30;5.40;;;;;;;7.97;100.00;99656.09;137178;1275;22156;-81
2023/10/01 03:45:55;;;;;;;16.40;6.60;;;;;;;8.02;100.00;99660.41;136672;1275;22158;-80
2023/10/01 03:49:00;;;;;;;;;;;;;;;8.07;100.00;99670.65;137321;1274;22342;-80
2023/10/01 03:52:01;;;;;;;13.40;6.10;;;;;;;8.11;100.00;99674.60;137312;1275;22324;-80
2023/10/01 03:55:25;;;;;;;17.60;6.10;;;;;;;8.15;100.00;99670.95;136716;1274;22988;-81
2023/10/01 03:58:29;;;;;;;15.00;6.50;;;;;;;8.20;100.00;99678.39;136741;1274;22264;-80
2023/10/01 04:01:33;;;;;;;10.60;6.30;;;;;;;8.22;100.00;99675.89;136772;1274;22646;-80
2023/10/01 04:04:56;;;;;;;17.40;6.60;;;;;;;8.19;100.00;99671.08;137203;1275;22260;-80
2023/10/01 04:08:04;;;;;;;12.30;6.00;;;;;;;8.17;100.00;99668.05;136714;1274;22663;-81
2023/10/01 04:11:05;;;;;;;9.20;5.90;;;;;;;8.16;100.00;99671.86;136709;1274;22206;-81
2023/10/01 04:14:10;;;;;;;9.20;5.70;;;;;;;8.23;100.00;99675.74;137018;1274;22535;-80
2023/10/01 04:17:13;;;;;;;12.00;6.20;;;;;;;8.26;100.00;99664.92;136856;1274;25396;-82
2023/10/01 04:20:19;;;;;;;12.20;5.80;;;;;;;8.26;100.00;99671.31;136644;1274;22588;-80
2023/10/01 04:23:25;;;;;;;13.70;5.70;;;;;;;8.26;100.00;99672.55;136762;1274;22528;-80
2023/10/01 04:26:26;;;;;;;11.80;5.70;;;;;;;8.25;100.00;99671.28;137294;1259;22917;-80
2023/10/01 04:29:44;;;;;;;10.70;5.80;;;;;;;8.24;100.00;99673.35;136662;1274;22382;-80
2023/10/01 04:32:47;;;;;;;13.60;5.20;;;;;;;8.29;100.00;99667.78;136704;1274;22218;-79
2023/10/01 04:35:52;;;;;;;9.10;5.00;;;;;;;8.32;100.00;99670.68;137025;1274;22561;-84
2023/10/01 04:39:00;;;;;;;14.00;6.30;;;;;;;8.33;100.00;99679.89;136977;1274;22540;-79
2023/10/01 04:42:01;;;;;;;12.30;5.60;;;;;;;8.36;100.00;99684.33;136614;1274;25348;-80
2023/10/01 04:45:22;;;;;;;10.80;5.80;;;;;;;8.38;100.00;99688.58;136700;1274;22547;-80
2023/10/01 04:48:23;;;;;;;14.30;5.70;;;;;;;8.42;100.00;99686.45;137311;1274;22321;-80
2023/10/01 04:51:40;;;;;;;11.10;5.70;;;;;;;8.44;100.00;99677.84;136635;1274;22561;-80
2023/10/01 04:54:44;;;;;;;12.50;5.90;;;;;;;8.47;100.00;99669.29;136573;1274;22533;-80
2023/10/01 04:57:45;;;;;;;11.50;5.40;;;;;;;8.51;100.00;99665.59;136972;1274;22536;-81
2023/10/01 05:00:46;;;;;;;24.40;6.50;;;;;;;8.52;100.00;99661.65;137051;1274;22230;-81
2023/10/01 05:03:48;;;;;;;9.10;5.50;;;;;;;8.55;100.00;99661.24;136738;1275;22160;-81
2023/10/01 05:07:00;;;;;;;13.50;6.30;;;;;;;8.61;100.00;99663.86;136667;1274;22556;-80
2023/10/01 05:10:02;;;;;;;9.20;5.70;;;;;;;8.65;100.00;99655.64;137248;1274;22199;-80
2023/10/01 05:13:03;;;;;;;18.50;7.30;;;;;;;8.73;100.00;99653.34;136643;1274;22346;-80
2023/10/01 05:16:06;;;;;;;21.30;8.70;;;;;;;8.84;100.00;99660.45;136718;1275;22150;-80
2023/10/01 05:19:09;;;;;;;24.90;10.30;;;;;;;8.96;100.00;99664.48;137099;1275;22524;-80
2023/10/01 05:22:11;;;;;;;17.30;9.80;;;;;;;9.11;100.00;99670.66;136878;1275;22204;-81
2023/10/01 05:25:12;;;;;;;21.00;11.10;;;;;;;9.24;100.00;99672.83;136678;1274;22186;-81
2023/10/01 05:28:23;;;;;;;20.80;11.00;;;;;;;9.37;100.00;99676.34;136797;1274;22559;-82
2023/10/01 05:31:24;;;;;;;16.10;9.90;;;;;;;9.52;100.00;99672.81;137091;1274;22170;-81
2023/10/01 05:34:28;;;;;;;25.00;11.00;;;;;;;9.65;100.00;99680.30;136682;1275;22442;-81
2023/10/01 05:37:36;;;;;;;22.20;10.10;;;;;;;9.73;100.00;99689.40;136803;1275;22552;-81
2023/10/01 05:40:40;;;;;;;23.80;9.80;;;;;;;9.81;100.00;99691.20;137274;1275;22314;-81
2023/10/01 05:43:46;;;;;;;20.10;9.10;;;;;;;9.89;100.00;99691.23;136814;1275;22335;-81
2023/10/01 05:46:47;;;;;;;17.90;8.60;;;;;;;9.95;100.00;99690.55;136738;1275;22296;-81
2023/10/01 05:49:53;;;;;;;18.60;9.00;;;;;;;10.03;100.00;99695.26;136874;1275;23217;-81
2023/10/01 05:52:55;;;;;;;21.60;8.20;;;;;;;10.09;100.00;99693.55;136962;1275;22300;-80
2023/10/01 05:55:56;;;;;;;20.60;8.90;;;;;;;10.14;100.00;99698.36;136784;1275;23125;-81
2023/10/01 05:58:58;;;;;;;23.50;8.80;;;;;;;10.20;100.00;99693.87;136793;1275;24219;-80
2023/10/01 06:01:59;;;;;;;16.10;7.90;;;;;;;10.28;100.00;99695.64;137146;1275;22925;-80
2023/10/01 06:05:22;;;;;;;23.50;8.60;;;;;;;10.36;100.00;99692.03;136688;1275;22538;-80
2023/10/01 06:08:24;;;;;;;18.20;8.50;;;;;;;10.43;100.00;99697.81;136576;1275;22566;-80
2023/10/01 06:11:38;;;;;;;18.00;7.70;;;;;;;10.53;100.00;99708.52;136973;1275;22550;-81
2023/10/01 06:14:39;;;;;;;17.50;7.20;;;;;;;10.63;100.00;99713.98;136895;1275;22552;-80
2023/10/01 06:17:42;;;;;;;21.70;7.60;;;;;;;10.71;100.00;99704.95;136721;1275;22467;-81
2023/10/01 06:20:43;;;;;;;45.30;26.70;;;;;;;10.79;100.00;99696.98;136729;1275;22540;-80
2023/10/01 06:23:49;;;;;;;25.90;9.90;;;;;;;10.87;100.00;99695.77;137246;1275;22561;-80
2023/10/01 06:26:50;;;;;;;15.10;8.30;;;;;;;10.94;100.00;99692.46;136648;1275;22257;-81
2023/10/01 06:29:51;;;;;;;19.00;8.10;;;;;;;11.00;100.00;99695.04;137014;1275;24188;-80
2023/10/01 06:32:53;;;;;;;21.00;9.80;;;;;;;11.03;100.00;99700.18;137392;1275;22655;-80
2023/10/01 06:39:20;;;;;;;35.70;13.90;;;;;;;11.17;100.00;99690.56;137028;1275;22550;-80
2023/10/01 06:42:24;;;;;;;31.30;15.80;;;;;;;11.26;100.00;99696.71;137023;1275;22609;-80
2023/10/01 06:45:38;;;;;;;20.90;11.50;;;;;;;11.34;100.00;99698.64;137303;1275;22332;-80
2023/10/01 06:48:40;;;;;;;19.20;9.40;;;;;;;11.37;100.00;99702.04;137004;1275;22207;-80
2023/10/01 06:51:44;;;;;;;29.30;11.70;;;;;;;11.44;100.00;99701.85;136857;1275;22558;-80
2023/10/01 06:54:46;;;;;;;13.40;8.10;;;;;;;11.55;100.00;99701.73;137153;1275;22540;-81
2023/10/01 06:57:47;;;;;;;19.20;8.60;;;;;;;11.64;100.00;99702.95;136761;1275;22197;-81
2023/10/01 07:00:48;;;;;;;19.60;8.50;;;;;;;11.74;100.00;99703.87;136661;1275;22362;-81
2023/10/01 07:03:50;;;;;;;20.60;8.00;;;;;;;11.86;100.00;99703.96;136862;1275;22532;-81
2023/10/01 07:06:51;;;;;;;17.00;7.50;;;;;;;11.96;100.00;99702.42;137021;1275;22538;-82
2023/10/01 07:09:54;;;;;;;15.50;7.60;;;;;;;12.05;100.00;99702.45;136658;1275;22198;-82
2023/10/01 07:13:04;;;;;;;18.20;8.00;;;;;;;12.17;100.00;99700.95;136710;1275;22541;-82
2023/10/01 07:16:07;;;;;;;17.30;7.10;;;;;;;12.25;100.00;99703.20;137233;1275;22166;-81
2023/10/01 07:19:11;;;;;;;14.00;7.00;;;;;;;12.34;100.00;99700.05;136688;1275;22557;-80
2023/10/01 07:22:14;;;;;;;17.90;7.00;;;;;;;12.44;100.00;99696.05;136744;1275;22284;-81
2023/10/01 07:25:28;;;;;;;15.30;6.30;;;;;;;12.54;100.00;99695.52;137065;1275;22545;-82
2023/10/01 07:28:30;;;;;;;15.40;5.80;;;;;;;12.63;100.00;99693.93;137026;1275;22420;-80
2023/10/01 07:31:35;;;;;;;13.80;7.00;;;;;;;12.68;100.00;99694.19;136700;1275;22732;-80
2023/10/01 07:34:39;;;;;;;14.30;6.40;;;;;;;12.72;100.00;99695.84;136642;1275;22557;-81
2023/10/01 07:37:41;;;;;;;21.10;7.80;;;;;;;12.78;100.00;99698.20;137227;1275;22190;-80
2023/10/01 07:40:57;;;;;;;20.90;11.40;;;;;;;12.86;100.00;99690.64;136708;1275;22206;-80
2023/10/01 07:44:07;;;;;;;16.90;7.30;;;;;;;13.03;100.00;99684.64;136699;1275;22716;-81
2023/10/01 07:47:28;;;;;;;14.30;5.80;;;;;;;13.21;100.00;99698.75;137079;1275;22597;-82
2023/10/01 07:50:29;;;;;;;18.10;6.10;;;;;;;13.30;100.00;99694.35;137123;1275;22697;-81
2023/10/01 07:53:33;;;;;;;17.50;6.10;;;;;;;13.42;100.00;99698.37;136747;1275;22691;-82
2023/10/01 07:56:34;;;;;;;15.50;6.00;;;;;;;13.57;100.00;99693.16;136745;1275;22567;-80
2023/10/01 07:59:35;;;;;;;13.00;5.50;;;;;;;13.70;100.00;99695.23;137287;1275;22392;-81
2023/10/01 08:03:27;;;;;;;13.50;6.00;;;;;;;13.81;100.00;99693.63;136598;1275;25336;-81
2023/10/01 08:06:10;;;;;;;16.00;6.40;;;;;;;14.01;100.00;99696.88;136712;1274;22525;-81
2023/10/01 08:09:12;;;;;;;12.30;5.50;;;;;;;14.12;100.00;99696.83;136857;1275;22568;-83
2023/10/01 08:12:14;;;;;;;16.90;5.80;;;;;;;14.21;100.00;99702.19;137124;1274;22632;-79
2023/10/01 08:15:31;;;;;;;11.70;5.30;;;;;;;14.37;100.00;99702.17;136642;1275;22167;-81
2023/10/01 08:18:35;;;;;;;12.50;5.00;;;;;;;14.47;100.00;99702.65;136701;1274;22690;-81
2023/10/01 08:21:37;;;;;;;15.40;5.50;;;;;;;14.49;100.00;99705.66;137225;1274;22544;-81
2023/10/01 08:24:38;;;;;;;12.30;5.30;;;;;;;14.49;100.00;99711.27;136766;1274;22354;-81
2023/10/01 08:28:08;;;;;;;14.10;6.00;;;;;;;14.49;100.00;99712.48;136726;1275;22188;-81
2023/10/01 08:31:01;;;;;;;12.80;5.70;;;;;;;14.48;100.00;99712.48;136785;1274;22544;-81
2023/10/01 08:34:22;;;;;;;12.10;6.30;;;;;;;14.41;100.00;99713.08;137089;1274;22758;-80
2023/10/01 08:37:23;;;;;;;22.20;10.40;;;;;;;14.37;100.00;99711.45;136771;1275;22270;-80
2023/10/01 08:40:27;;;;;;;14.80;6.50;;;;;;;14.37;100.00;99710.23;136747;1274;22293;-81
2023/10/01 08:43:28;;;;;;;17.10;6.00;;;;;;;14.36;100.00;99707.77;137126;1274;22561;-81
2023/10/01 08:46:31;;;;;;;12.40;5.50;;;;;;;14.31;100.00;99711.04;136779;1274;22486;-79
2023/10/01 08:49:38;;;;;;;12.40;5.40;;;;;;;14.24;100.00;99719.02;136658;1274;22269;-80
2023/10/01 08:52:52;;;;;;;13.20;5.20;;;;;;;14.15;100.00;99715.41;136948;1274;22509;-79
2023/10/01 08:56:05;;;;;;;16.60;5.90;;;;;;;14.08;100.00;99709.39;137264;1275;22260;-80
2023/10/01 08:59:23;;;;;;;19.40;6.80;;;;;;;14.09;100.00;99704.50;136742;1274;22153;-80
2023/10/01 09:02:24;;;;;;;17.70;7.60;;;;;;;14.22;100.00;99704.46;136684;1275;22707;-80
2023/10/01 09:05:26;;;;;;;15.40;6.90;;;;;;;14.33;100.00;99701.08;137051;1274;22552;-79
2023/10/01 09:08:29;;;;;;;14.10;6.30;;;;;;;14.41;100.00;99698.35;136954;1274;22252;-80
2023/10/01 09:11:32;;;;;;;13.80;6.20;;;;;;;14.46;100.00;99691.27;136675;1274;22613;-80
2023/10/01 09:14:33;;;;;;;18.40;9.90;;;;;;;14.68;100.00;99684.47;136811;1274;22536;-80
2023/10/01 09:17:40;;;;;;;13.50;6.10;;;;;;;14.93;100.00;99683.99;137197;1274;22192;-80
2023/10/01 09:20:42;;;;;;;13.80;6.90;;;;;;;15.11;100.00;99679.22;136696;1274;22586;-80
2023/10/01 09:23:54;;;;;;;14.50;6.30;;;;;;;15.22;100.00;99675.95;136789;1274;22257;-80
2023/10/01 09:26:55;;;;;;;10.60;5.80;;;;;;;15.31;100.00;99674.61;137154;1274;22548;-81
2023/10/01 09:29:57;;;;;;;15.90;5.30;;;;;;;15.38;100.00;99676.75;136843;1274;22193;-80
2023/10/01 09:33:04;;;;;;;14.20;5.70;;;;;;;15.41;100.00;99677.48;136592;1274;22218;-81
2023/10/01 09:36:07;;;;;;;19.90;5.60;;;;;;;15.56;100.00;99676.35;136885;1274;22617;-84
2023/10/01 09:39:10;;;;;;;14.40;5.20;;;;;;;15.70;100.00;99680.33;137129;1274;22130;-81
2023/10/01 09:42:24;;;;;;;13.30;5.10;;;;;;;15.84;100.00;99674.94;136708;1274;22514;-80
2023/10/01 09:45:26;;;;;;;11.80;6.00;;;;;;;15.95;100.00;99675.51;136727;1274;22249;-81
2023/10/01 09:48:30;;;;;;;13.30;5.50;;;;;;;16.13;100.00;99676.08;137276;1274;22198;-81
2023/10/01 09:51:34;;;;;;;12.90;5.30;;;;;;;16.35;100.00;99669.27;136845;1274;22380;-79
2023/10/01 09:54:41;;;;;;;16.60;5.70;;;;;;;16.51;100.00;99667.92;136704;1274;22752;-81
2023/10/01 09:57:43;;;;;;;12.70;5.50;;;;;;;16.64;100.00;99669.00;136976;1275;22536;-82
2023/10/01 10:00:44;;;;;;;16.80;5.90;;;;;;;16.81;100.00;99662.70;137046;1275;22202;-81
2023/10/01 10:03:45;;;;;;;11.80;5.10;;;;;;;16.96;100.00;99663.92;136689;1275;22309;-82
2023/10/01 10:06:59;;;;;;;21.90;5.80;;;;;;;17.03;100.00;99667.43;136681;1275;22536;-81
2023/10/01 10:10:00;;;;;;;;;;;;;;;17.20;100.00;99667.59;137277;1267;22566;-81
2023/10/01 10:13:06;;;;;;;9.60;4.70;;;;;;;17.26;100.00;99664.05;136483;1275;22541;-82
2023/10/01 10:19:23;;;;;;;13.10;5.10;;;;;;;17.36;100.00;99664.23;137005;1275;22537;-82
2023/10/01 10:22:28;;;;;;;12.10;6.10;;;;;;;17.36;100.00;99661.60;136923;1274;22248;-81
2023/10/01 10:25:31;;;;;;;10.30;4.80;;;;;;;17.52;100.00;99665.42;136680;1275;22280;-81
2023/10/01 10:28:32;;;;;;;11.90;4.60;;;;;;;17.44;100.00;99665.97;136767;1275;25460;-81
2023/10/01 10:31:33;;;;;;;16.40;5.30;;;;;;;17.31;100.00;99666.86;137181;1275;22299;-81
2023/10/01 10:34:36;;;;;;;13.50;4.90;;;;;;;17.32;100.00;99661.58;136779;1275;22249;-81
2023/10/01 10:37:37;;;;;;;11.90;4.90;;;;;;;17.43;100.00;99662.63;136908;1275;22569;-81
2023/10/01 10:40:38;;;;;;;8.50;4.40;;;;;;;17.60;100.00;99666.27;137147;1275;22360;-81
2023/10/01 10:43:45;;;;;;;10.00;4.60;;;;;;;17.84;100.00;99667.27;137011;1275;22557;-81
2023/10/01 10:46:47;;;;;;;9.50;4.10;;;;;;;17.98;100.00;99665.80;137105;1275;22267;-81
2023/10/01 10:49:48;;;;;;;10.90;4.50;;;;;;;17.95;100.00;99667.22;137285;1275;22568;-81
2023/10/01 10:52:50;;;;;;;12.80;4.00;;;;;;;17.88;100.00;99664.44;136960;1260;22542;-81
2023/10/01 10:55:52;;;;;;;11.70;4.30;;;;;;;17.91;100.00;99663.90;136993;1274;22673;-81
2023/10/01 10:59:01;;;;;;;10.00;4.60;;;;;;;17.97;100.00;99667.91;137280;1275;22512;-81
2023/10/01 11:02:03;;;;;;;9.60;4.10;;;;;;;18.02;100.00;99673.70;137315;1275;22557;-81
2023/10/01 11:05:04;;;;;;;11.10;4.00;;;;;;;17.91;100.00;99669.88;136946;1275;22738;-81
2023/10/01 11:08:05;;;;;;;9.60;3.80;;;;;;;17.74;100.00;99675.94;136790;1274;22541;-80
2023/10/01 11:11:10;;;;;;;8.60;3.90;;;;;;;17.70;100.00;99678.24;136559;1275;22681;-81
2023/10/01 11:14:15;;;;;;;10.50;4.00;;;;;;;17.82;100.00;99672.73;136689;1275;22160;-81
2023/10/01 11:17:17;;;;;;;7.10;3.80;;;;;;;17.82;100.00;99667.81;136885;1275;22544;-82
2023/10/01 11:20:23;;;;;;;9.80;4.10;;;;;;;17.78;100.00;99663.23;136907;1275;22174;-81
2023/10/01 11:23:24;;;;;;;12.00;4.70;;;;;;;17.88;100.00;99664.98;136576;1275;22573;-81
2023/10/01 11:26:29;;;;;;;13.40;4.70;;;;;;;17.84;100.00;99662.52;136651;1275;22668;-81
2023/10/01 11:29:30;;;;;;;13.40;4.30;;;;;;;17.75;100.00;99662.73;136970;1275;22569;-82
2023/10/01 11:32:31;;;;;;;12.60;4.20;;;;;;;17.78;100.00;99657.79;136371;1275;24796;-80
2023/10/01 11:35:33;;;;;;;8.10;4.00;;;;;;;17.84;100.00;99653.36;136585;1275;22547;-80
2023/10/01 11:38:34;;;;;;;10.30;3.90;;;;;;;17.90;100.00;99655.63;137183;1275;22753;-81
2023/10/01 11:41:38;;;;;;;12.40;3.80;;;;;;;17.96;100.00;99654.71;136766;1275;22206;-80
2023/10/01 11:44:43;;;;;;;10.40;3.90;;;;;;;18.03;100.00;99653.09;136681;1275;22197;-80
2023/10/01 11:47:44;;;;;;;8.40;4.20;;;;;;;18.03;100.00;99651.34;137245;1275;22530;-80
2023/10/01 11:50:50;;;;;;;7.60;3.40;;;;;;;18.10;100.00;99646.89;136673;1267;22555;-79
2023/10/01 11:53:51;;;;;;;7.50;3.40;;;;;;;18.24;100.00;99639.95;136685;1275;22270;-80
2023/10/01 11:57:04;;;;;;;9.00;4.40;;;;;;;18.40;100.00;99639.14;136914;1275;22531;-82
2023/10/01 12:00:06;;;;;;;11.30;3.80;;;;;;;18.49;100.00;99636.97;136698;1275;23008;-79
2023/10/01 12:03:10;;;;;;;9.50;3.40;;;;;;;18.59;100.00;99635.48;136104;1275;22643;-80
2023/10/01 12:06:12;;;;;;;9.40;3.80;;;;;;;18.59;100.00;99636.53;136559;1275;25252;-81
2023/10/01 12:09:13;;;;;;;8.00;3.50;;;;;;;18.64;100.00;99632.12;136513;1274;22233;-81
2023/10/01 12:12:14;;;;;;;8.80;3.50;;;;;;;18.68;100.00;99629.27;136667;1274;22224;-82
2023/10/01 12:15:34;;;;;;;7.10;3.10;;;;;;;18.69;71.46;99624.15;136940;1274;22533;-81
2023/10/01 12:18:44;;;;;;;6.70;3.50;;;;;;;18.68;64.63;99626.09;136835;1274;22164;-81
2023/10/01 12:21:45;;;;;;;8.10;3.80;;;;;;;18.68;64.29;99623.45;136479;1274;22945;-80
2023/10/01 12:24:49;;;;;;;8.30;3.20;;;;;;;18.71;63.92;99628.18;136694;1275;22539;-81
2023/10/01 12:27:50;;;;;;;8.60;3.20;;;;;;;18.65;62.83;99624.19;137018;1275;22903;-82
2023/10/01 12:30:57;;;;;;;9.70;3.10;;;;;;;18.54;63.28;99625.46;136417;1274;22192;-80
2023/10/01 12:33:58;;;;;;;11.60;3.90;;;;;;;18.64;64.28;99618.19;136411;1260;22533;-83
2023/10/01 12:37:07;;;;;;;9.30;3.60;;;;;;;18.69;62.60;99627.33;137197;1274;22562;-80
2023/10/01 12:40:14;;;;;;;6.50;3.10;;;;;;;18.54;61.33;99630.77;136647;1275;22557;-80
2023/10/01 12:46:32;;;;;;;5.10;2.70;;;;;;;18.60;62.39;99622.61;137006;1275;25350;-79
2023/10/01 12:49:33;;;;;;;7.00;3.00;;;;;;;18.74;61.54;99618.98;136816;1275;22544;-80
2023/10/01 12:52:35;;;;;;;7.30;3.00;;;;;;;18.91;61.60;99617.42;136605;1274;22672;-81
2023/10/01 12:55:36;;;;;;;9.00;2.90;;;;;;;19.07;60.99;99616.92;136762;1274;22558;-81
2023/10/01 12:58:39;;;;;;;7.60;2.90;;;;;;;19.14;60.51;99610.34;137168;1274;22263;-81
2023/10/01 13:01:40;;;;;;;9.20;3.30;;;;;;;19.27;59.84;99602.44;136721;1274;22264;-80
2023/10/01 13:04:48;;;;;;;11.00;3.10;;;;;;;19.27;58.53;99601.37;136744;1274;24942;-80
2023/10/01 13:07:50;;;;;;;7.50;3.30;;;;;;;19.21;59.13;99596.15;137223;1274;22226;-81
2023/10/01 13:10:56;;;;;;;4.80;2.30;;;;;;;19.10;58.99;99591.50;136693;1274;22276;-81
2023/10/01 13:14:08;;;;;;;10.50;3.30;;;;;;;18.90;58.88;99591.15;136659;1274;22150;-81
2023/10/01 13:17:19;;;;;;;7.60;2.70;;;;;;;18.73;60.12;99590.08;136989;1274;22539;-82
2023/10/01 13:20:22;;;;;;;9.70;3.40;;;;;;;18.65;60.25;99587.16;136939;1275;22698;-80
2023/10/01 13:23:24;;;;;;;6.50;3.20;;;;;;;18.58;60.42;99578.20;137083;1274;22315;-80
2023/10/01 13:26:31;;;;;;;7.00;2.80;;;;;;;18.59;60.26;99574.32;136984;1274;22628;-80
2023/10/01 13:29:32;;;;;;;5.10;2.40;;;;;;;18.69;58.35;99573.20;137306;1274;22213;-81
2023/10/01 13:32:35;;;;;;;6.40;2.90;;;;;;;18.69;59.25;99565.80;136932;1274;22273;-80
2023/10/01 13:35:36;;;;;;;9.10;2.90;;;;;;;18.64;58.67;99564.96;137161;1274;22588;-80
2023/10/01 14:08:44;;;;;;;5.20;2.30;;;;;;;17.96;60.99;99571.42;136662;1278;22197;-82
2023/10/01 14:11:54;;;;;;;9.50;2.90;;;;;;;17.94;61.89;99569.84;136169;1278;23008;-79
2023/10/01 14:14:55;;;;;;;5.30;2.60;;;;;;;17.93;62.08;99571.61;136252;1264;22710;-81
2023/10/01 14:17:56;;;;;;;5.90;3.30;;;;;;;17.89;62.48;99571.29;136761;1278;22336;-81
2023/10/01 14:20:58;;;;;;;7.00;3.30;;;;;;;17.80;61.76;99566.59;136332;1278;22377;-81
2023/10/01 14:27:24;;;;;;;6.30;2.90;;;;;;;17.56;62.31;99564.58;136449;1279;22751;-83
2023/10/01 14:30:25;;;;;;;10.30;2.90;;;;;;;17.48;62.80;99564.09;137140;1275;22735;-81
2023/10/01 14:33:27;;;;;;;10.60;2.90;;;;;;;17.52;63.48;99561.25;136592;1275;22316;-82
2023/10/01 14:36:28;;;;;;;8.80;2.90;;;;;;;17.53;63.43;99559.84;136639;1275;22593;-82
2023/10/01 14:39:30;;;;;;;6.80;2.70;;;;;;;17.50;63.70;99560.55;137217;1275;22550;-81
2023/10/01 14:42:36;;;;;;;5.20;3.10;;;;;;;17.50;63.81;99564.07;136593;1275;22422;-80
2023/10/01 14:45:44;;;;;;;6.30;2.70;;;;;;;17.51;63.51;99562.84;136633;1275;22621;-82
2023/10/01 14:48:46;;;;;;;8.80;3.00;;;;;;;17.53;63.56;99564.41;137057;1275;25336;-83
2023/10/01 14:51:48;;;;;;;7.70;3.10;;;;;;;17.56;63.74;99562.98;136788;1275;25246;-80